sensor_id;sensor_type;location;lat;lon;timestamp;P1;durP1;ratioP1;P2;durP2;ratioP2
50932;SDS011;36921;49.006;9.292;2023-06-22T00:02:16;11.65;;;5.15;;
50932;SDS011;36921;49.006;9.292;2023-06-22T00:04:42;7.40;;;4.88;;
50932;SDS011;36921;49.006;9.292;2023-06-22T00:07:07;8.65;;;5.05;;
50932;SDS011;36921;49.006;9.292;2023-06-22T00:09:33;9.05;;;5.00;;
50932;SDS011;36921;49.006;9.292;2023-06-22T00:11:58;7.90;;;4.80;;
50932;SDS011;36921;49.006;9.292;2023-06-22T00:14:24;6.78;;;3.95;;
50932;SDS011;36921;49.006;9.292;2023-06-22T00:16:49;13.10;;;5.95;;
50932;SDS011;36921;49.006;9.292;2023-06-22T00:21:44;9.88;;;4.80;;
50932;SDS011;36921;49.006;9.292;2023-06-22T00:24:11;7.07;;;4.72;;
50932;SDS011;36921;49.006;9.292;2023-06-22T00:26:37;10.55;;;4.93;;
50932;SDS011;36921;49.006;9.292;2023-06-22T00:29:02;7.95;;;5.07;;
50932;SDS011;36921;49.006;9.292;2023-06-22T00:31:27;12.40;;;5.63;;
50932;SDS011;36921;49.006;9.292;2023-06-22T00:33:53;9.55;;;5.00;;
50932;SDS011;36921;49.006;9.292;2023-06-22T00:36:18;7.68;;;5.38;;
50932;SDS011;36921;49.006;9.292;2023-06-22T00:38:44;10.00;;;4.75;;
50932;SDS011;36921;49.006;9.292;2023-06-22T00:41:09;10.45;;;5.55;;
50932;SDS011;36921;49.006;9.292;2023-06-22T00:43:34;10.20;;;5.20;;
50932;SDS011;36921;49.006;9.292;2023-06-22T00:46:00;11.23;;;5.32;;
50932;SDS011;36921;49.006;9.292;2023-06-22T00:48:25;8.27;;;5.13;;
50932;SDS011;36921;49.006;9.292;2023-06-22T00:50:51;11.20;;;5.43;;
50932;SDS011;36921;49.006;9.292;2023-06-22T00:53:18;9.10;;;4.88;;
50932;SDS011;36921;49.006;9.292;2023-06-22T00:55:44;9.80;;;5.68;;
50932;SDS011;36921;49.006;9.292;2023-06-22T00:58:11;10.85;;;5.43;;
50932;SDS011;36921;49.006;9.292;2023-06-22T01:00:38;13.27;;;5.95;;
50932;SDS011;36921;49.006;9.292;2023-06-22T01:03:06;9.82;;;6.15;;
50932;SDS011;36921;49.006;9.292;2023-06-22T01:05:34;10.30;;;5.72;;
50932;SDS011;36921;49.006;9.292;2023-06-22T01:08:21;17.30;;;5.78;;
50932;SDS011;36921;49.006;9.292;2023-06-22T01:11:03;9.00;;;5.03;;
50932;SDS011;36921;49.006;9.292;2023-06-22T01:13:42;7.15;;;4.72;;
50932;SDS011;36921;49.006;9.292;2023-06-22T01:16:18;7.93;;;5.10;;
50932;SDS011;36921;49.006;9.292;2023-06-22T01:18:48;10.20;;;5.15;;
50932;SDS011;36921;49.006;9.292;2023-06-22T01:21:17;11.23;;;5.32;;
50932;SDS011;36921;49.006;9.292;2023-06-22T01:28:59;15.35;;;5.63;;
50932;SDS011;36921;49.006;9.292;2023-06-22T01:31:27;11.02;;;6.25;;
50932;SDS011;36921;49.006;9.292;2023-06-22T01:34:04;12.00;;;6.07;;
50932;SDS011;36921;49.006;9.292;2023-06-22T01:36:31;12.30;;;6.47;;
50932;SDS011;36921;49.006;9.292;2023-06-22T01:38:58;10.98;;;6.45;;
50932;SDS011;36921;49.006;9.292;2023-06-22T01:41:27;13.70;;;6.47;;
50932;SDS011;36921;49.006;9.292;2023-06-22T01:43:54;9.65;;;6.70;;
50932;SDS011;36921;49.006;9.292;2023-06-22T01:46:21;11.55;;;6.55;;
50932;SDS011;36921;49.006;9.292;2023-06-22T01:48:48;9.57;;;6.63;;
50932;SDS011;36921;49.006;9.292;2023-06-22T01:51:14;12.18;;;6.57;;
50932;SDS011;36921;49.006;9.292;2023-06-22T01:53:40;13.02;;;6.28;;
50932;SDS011;36921;49.006;9.292;2023-06-22T01:56:06;11.68;;;6.78;;
50932;SDS011;36921;49.006;9.292;2023-06-22T01:58:31;8.07;;;5.93;;
50932;SDS011;36921;49.006;9.292;2023-06-22T02:01:20;11.52;;;6.28;;
50932;SDS011;36921;49.006;9.292;2023-06-22T02:03:51;12.40;;;6.40;;
50932;SDS011;36921;49.006;9.292;2023-06-22T02:06:27;15.23;;;6.60;;
50932;SDS011;36921;49.006;9.292;2023-06-22T02:09:01;11.68;;;6.35;;
50932;SDS011;36921;49.006;9.292;2023-06-22T02:11:28;14.57;;;6.18;;
50932;SDS011;36921;49.006;9.292;2023-06-22T02:13:55;9.18;;;5.70;;
50932;SDS011;36921;49.006;9.292;2023-06-22T02:16:22;8.43;;;5.22;;
50932;SDS011;36921;49.006;9.292;2023-06-22T02:18:48;10.40;;;6.40;;
50932;SDS011;36921;49.006;9.292;2023-06-22T02:21:18;9.50;;;5.47;;
50932;SDS011;36921;49.006;9.292;2023-06-22T02:23:44;9.25;;;6.07;;
50932;SDS011;36921;49.006;9.292;2023-06-22T02:26:09;12.77;;;6.13;;
50932;SDS011;36921;49.006;9.292;2023-06-22T02:28:34;11.73;;;6.10;;
50932;SDS011;36921;49.006;9.292;2023-06-22T02:31:00;10.70;;;6.43;;
50932;SDS011;36921;49.006;9.292;2023-06-22T02:33:25;9.50;;;6.05;;
50932;SDS011;36921;49.006;9.292;2023-06-22T02:35:50;15.30;;;6.00;;
50932;SDS011;36921;49.006;9.292;2023-06-22T02:38:16;11.07;;;5.68;;
50932;SDS011;36921;49.006;9.292;2023-06-22T02:40:42;11.45;;;5.68;;
50932;SDS011;36921;49.006;9.292;2023-06-22T02:43:07;10.57;;;5.63;;
50932;SDS011;36921;49.006;9.292;2023-06-22T02:45:33;14.18;;;6.13;;
50932;SDS011;36921;49.006;9.292;2023-06-22T02:47:58;12.40;;;6.53;;
50932;SDS011;36921;49.006;9.292;2023-06-22T02:50:23;9.82;;;6.07;;
50932;SDS011;36921;49.006;9.292;2023-06-22T02:52:49;10.43;;;6.20;;
50932;SDS011;36921;49.006;9.292;2023-06-22T02:55:14;11.00;;;5.85;;
50932;SDS011;36921;49.006;9.292;2023-06-22T02:57:40;9.43;;;5.75;;
50932;SDS011;36921;49.006;9.292;2023-06-22T03:00:08;7.38;;;5.47;;
50932;SDS011;36921;49.006;9.292;2023-06-22T03:02:46;10.05;;;6.22;;
50932;SDS011;36921;49.006;9.292;2023-06-22T03:05:13;7.88;;;5.72;;
50932;SDS011;36921;49.006;9.292;2023-06-22T03:07:43;9.60;;;6.30;;
50932;SDS011;36921;49.006;9.292;2023-06-22T03:10:09;9.75;;;6.38;;
50932;SDS011;36921;49.006;9.292;2023-06-22T03:12:39;14.63;;;6.70;;
50932;SDS011;36921;49.006;9.292;2023-06-22T03:17:31;11.40;;;6.60;;
50932;SDS011;36921;49.006;9.292;2023-06-22T03:19:56;10.82;;;6.68;;
50932;SDS011;36921;49.006;9.292;2023-06-22T03:22:21;13.35;;;6.43;;
50932;SDS011;36921;49.006;9.292;2023-06-22T03:24:46;14.35;;;5.93;;
50932;SDS011;36921;49.006;9.292;2023-06-22T03:27:12;8.40;;;5.55;;
50932;SDS011;36921;49.006;9.292;2023-06-22T03:29:38;23.83;;;7.70;;
50932;SDS011;36921;49.006;9.292;2023-06-22T03:32:03;11.27;;;6.85;;
50932;SDS011;36921;49.006;9.292;2023-06-22T03:34:30;11.88;;;6.78;;
50932;SDS011;36921;49.006;9.292;2023-06-22T03:36:59;12.40;;;6.50;;
50932;SDS011;36921;49.006;9.292;2023-06-22T03:39:24;9.18;;;6.00;;
50932;SDS011;36921;49.006;9.292;2023-06-22T03:41:50;12.25;;;7.13;;
50932;SDS011;36921;49.006;9.292;2023-06-22T03:44:15;10.98;;;6.05;;
50932;SDS011;36921;49.006;9.292;2023-06-22T03:46:40;12.27;;;7.07;;
50932;SDS011;36921;49.006;9.292;2023-06-22T03:49:06;9.98;;;6.80;;
50932;SDS011;36921;49.006;9.292;2023-06-22T03:51:32;15.48;;;6.78;;
50932;SDS011;36921;49.006;9.292;2023-06-22T03:53:57;13.32;;;7.10;;
50932;SDS011;36921;49.006;9.292;2023-06-22T03:56:23;12.95;;;5.95;;
50932;SDS011;36921;49.006;9.292;2023-06-22T03:58:48;10.52;;;6.30;;
50932;SDS011;36921;49.006;9.292;2023-06-22T04:01:13;9.30;;;6.03;;
50932;SDS011;36921;49.006;9.292;2023-06-22T04:03:39;9.73;;;6.28;;
50932;SDS011;36921;49.006;9.292;2023-06-22T04:06:04;15.30;;;6.78;;
50932;SDS011;36921;49.006;9.292;2023-06-22T04:08:30;12.10;;;6.57;;
50932;SDS011;36921;49.006;9.292;2023-06-22T04:10:55;12.25;;;6.25;;
50932;SDS011;36921;49.006;9.292;2023-06-22T04:13:20;12.02;;;6.38;;
50932;SDS011;36921;49.006;9.292;2023-06-22T04:15:46;11.27;;;6.38;;
50932;SDS011;36921;49.006;9.292;2023-06-22T04:18:11;13.50;;;6.88;;
50932;SDS011;36921;49.006;9.292;2023-06-22T04:20:36;15.02;;;6.32;;
50932;SDS011;36921;49.006;9.292;2023-06-22T04:23:02;15.25;;;7.03;;
50932;SDS011;36921;49.006;9.292;2023-06-22T04:25:27;12.25;;;7.07;;
50932;SDS011;36921;49.006;9.292;2023-06-22T04:27:52;12.88;;;6.72;;
50932;SDS011;36921;49.006;9.292;2023-06-22T04:30:17;9.98;;;6.38;;
50932;SDS011;36921;49.006;9.292;2023-06-22T04:32:43;11.23;;;6.55;;
50932;SDS011;36921;49.006;9.292;2023-06-22T04:35:10;14.07;;;6.20;;
50932;SDS011;36921;49.006;9.292;2023-06-22T04:37:35;7.32;;;5.30;;
50932;SDS011;36921;49.006;9.292;2023-06-22T04:40:01;11.35;;;6.30;;
50932;SDS011;36921;49.006;9.292;2023-06-22T04:42:26;10.93;;;6.57;;
50932;SDS011;36921;49.006;9.292;2023-06-22T04:44:52;10.30;;;5.97;;
50932;SDS011;36921;49.006;9.292;2023-06-22T04:47:17;9.13;;;5.72;;
50932;SDS011;36921;49.006;9.292;2023-06-22T04:49:43;9.70;;;6.13;;
50932;SDS011;36921;49.006;9.292;2023-06-22T04:52:09;12.48;;;6.13;;
50932;SDS011;36921;49.006;9.292;2023-06-22T04:54:35;13.10;;;5.57;;
50932;SDS011;36921;49.006;9.292;2023-06-22T04:57:02;12.20;;;5.10;;
50932;SDS011;36921;49.006;9.292;2023-06-22T04:59:30;11.18;;;5.75;;
50932;SDS011;36921;49.006;9.292;2023-06-22T05:01:57;8.65;;;5.38;;
50932;SDS011;36921;49.006;9.292;2023-06-22T05:04:23;9.90;;;5.38;;
50932;SDS011;36921;49.006;9.292;2023-06-22T05:06:49;10.57;;;5.43;;
50932;SDS011;36921;49.006;9.292;2023-06-22T05:09:15;8.57;;;5.38;;
50932;SDS011;36921;49.006;9.292;2023-06-22T05:11:42;8.65;;;5.30;;
50932;SDS011;36921;49.006;9.292;2023-06-22T05:14:07;12.10;;;5.50;;
50932;SDS011;36921;49.006;9.292;2023-06-22T05:16:33;9.38;;;4.97;;
50932;SDS011;36921;49.006;9.292;2023-06-22T05:18:58;8.70;;;5.13;;
50932;SDS011;36921;49.006;9.292;2023-06-22T05:21:24;7.25;;;4.45;;
50932;SDS011;36921;49.006;9.292;2023-06-22T05:23:51;9.82;;;5.20;;
50932;SDS011;36921;49.006;9.292;2023-06-22T05:26:17;6.95;;;4.20;;
50932;SDS011;36921;49.006;9.292;2023-06-22T05:28:43;9.45;;;4.78;;
50932;SDS011;36921;49.006;9.292;2023-06-22T05:31:11;7.97;;;5.07;;
50932;SDS011;36921;49.006;9.292;2023-06-22T05:33:40;7.50;;;4.00;;
50932;SDS011;36921;49.006;9.292;2023-06-22T05:36:06;10.95;;;4.50;;
50932;SDS011;36921;49.006;9.292;2023-06-22T05:38:32;7.95;;;4.57;;
50932;SDS011;36921;49.006;9.292;2023-06-22T05:40:57;7.50;;;4.47;;
50932;SDS011;36921;49.006;9.292;2023-06-22T05:43:22;10.98;;;4.43;;
50932;SDS011;36921;49.006;9.292;2023-06-22T05:45:47;10.05;;;4.50;;
50932;SDS011;36921;49.006;9.292;2023-06-22T05:48:13;6.45;;;4.05;;
50932;SDS011;36921;49.006;9.292;2023-06-22T05:50:38;8.07;;;4.80;;
50932;SDS011;36921;49.006;9.292;2023-06-22T05:53:04;11.23;;;4.63;;
50932;SDS011;36921;49.006;9.292;2023-06-22T05:55:29;10.27;;;4.28;;
50932;SDS011;36921;49.006;9.292;2023-06-22T05:57:54;5.90;;;4.20;;
50932;SDS011;36921;49.006;9.292;2023-06-22T06:00:19;8.35;;;4.50;;
50932;SDS011;36921;49.006;9.292;2023-06-22T06:02:47;7.05;;;4.43;;
50932;SDS011;36921;49.006;9.292;2023-06-22T06:05:14;6.80;;;4.18;;
50932;SDS011;36921;49.006;9.292;2023-06-22T06:07:40;6.68;;;3.95;;
50932;SDS011;36921;49.006;9.292;2023-06-22T06:10:08;8.88;;;4.68;;
50932;SDS011;36921;49.006;9.292;2023-06-22T06:12:34;9.60;;;4.57;;
50932;SDS011;36921;49.006;9.292;2023-06-22T06:14:59;9.23;;;4.95;;
50932;SDS011;36921;49.006;9.292;2023-06-22T06:17:25;6.70;;;4.10;;
50932;SDS011;36921;49.006;9.292;2023-06-22T06:19:50;9.00;;;5.00;;
50932;SDS011;36921;49.006;9.292;2023-06-22T06:22:15;9.13;;;4.38;;
50932;SDS011;36921;49.006;9.292;2023-06-22T06:24:40;14.10;;;4.35;;
50932;SDS011;36921;49.006;9.292;2023-06-22T06:27:06;9.70;;;4.53;;
50932;SDS011;36921;49.006;9.292;2023-06-22T06:29:31;7.47;;;4.18;;
50932;SDS011;36921;49.006;9.292;2023-06-22T06:31:57;8.35;;;4.07;;
50932;SDS011;36921;49.006;9.292;2023-06-22T06:34:22;8.38;;;4.07;;
50932;SDS011;36921;49.006;9.292;2023-06-22T06:36:48;7.55;;;3.97;;
50932;SDS011;36921;49.006;9.292;2023-06-22T06:39:13;8.00;;;4.40;;
50932;SDS011;36921;49.006;9.292;2023-06-22T06:41:39;6.18;;;3.95;;
50932;SDS011;36921;49.006;9.292;2023-06-22T06:44:04;6.53;;;3.88;;
50932;SDS011;36921;49.006;9.292;2023-06-22T06:46:29;6.53;;;3.92;;
50932;SDS011;36921;49.006;9.292;2023-06-22T06:48:55;7.95;;;4.57;;
50932;SDS011;36921;49.006;9.292;2023-06-22T06:51:20;6.70;;;4.03;;
50932;SDS011;36921;49.006;9.292;2023-06-22T06:53:52;8.77;;;4.18;;
50932;SDS011;36921;49.006;9.292;2023-06-22T06:56:17;6.00;;;3.97;;
50932;SDS011;36921;49.006;9.292;2023-06-22T06:58:43;7.13;;;4.15;;
50932;SDS011;36921;49.006;9.292;2023-06-22T07:01:10;5.05;;;4.07;;
50932;SDS011;36921;49.006;9.292;2023-06-22T07:03:37;7.70;;;4.22;;
50932;SDS011;36921;49.006;9.292;2023-06-22T07:06:02;8.90;;;3.90;;
50932;SDS011;36921;49.006;9.292;2023-06-22T07:08:27;6.22;;;3.97;;
50932;SDS011;36921;49.006;9.292;2023-06-22T07:10:53;6.50;;;3.92;;
50932;SDS011;36921;49.006;9.292;2023-06-22T07:13:19;6.22;;;3.60;;
50932;SDS011;36921;49.006;9.292;2023-06-22T07:15:44;7.32;;;3.40;;
50932;SDS011;36921;49.006;9.292;2023-06-22T07:18:10;7.95;;;3.72;;
50932;SDS011;36921;49.006;9.292;2023-06-22T07:20:35;7.97;;;3.55;;
50932;SDS011;36921;49.006;9.292;2023-06-22T07:23:01;4.93;;;3.30;;
50932;SDS011;36921;49.006;9.292;2023-06-22T07:25:26;7.93;;;3.80;;
50932;SDS011;36921;49.006;9.292;2023-06-22T07:27:59;5.85;;;3.70;;
50932;SDS011;36921;49.006;9.292;2023-06-22T07:30:27;6.93;;;3.75;;
50932;SDS011;36921;49.006;9.292;2023-06-22T07:32:53;6.53;;;2.88;;
50932;SDS011;36921;49.006;9.292;2023-06-22T07:35:18;7.22;;;3.75;;
50932;SDS011;36921;49.006;9.292;2023-06-22T07:37:44;9.38;;;3.35;;
50932;SDS011;36921;49.006;9.292;2023-06-22T07:40:10;7.53;;;3.45;;
50932;SDS011;36921;49.006;9.292;2023-06-22T07:42:35;6.95;;;3.65;;
50932;SDS011;36921;49.006;9.292;2023-06-22T07:45:02;5.80;;;3.10;;
50932;SDS011;36921;49.006;9.292;2023-06-22T07:47:28;5.18;;;3.42;;
50932;SDS011;36921;49.006;9.292;2023-06-22T07:49:54;5.82;;;3.33;;
50932;SDS011;36921;49.006;9.292;2023-06-22T07:52:22;5.50;;;3.15;;
50932;SDS011;36921;49.006;9.292;2023-06-22T07:54:48;8.13;;;3.70;;
50932;SDS011;36921;49.006;9.292;2023-06-22T07:57:14;6.70;;;3.13;;
50932;SDS011;36921;49.006;9.292;2023-06-22T07:59:39;8.93;;;3.75;;
50932;SDS011;36921;49.006;9.292;2023-06-22T08:02:04;7.10;;;3.65;;
50932;SDS011;36921;49.006;9.292;2023-06-22T08:04:30;7.50;;;3.92;;
50932;SDS011;36921;49.006;9.292;2023-06-22T08:06:57;8.00;;;3.22;;
50932;SDS011;36921;49.006;9.292;2023-06-22T08:09:22;5.18;;;3.38;;
50932;SDS011;36921;49.006;9.292;2023-06-22T08:11:48;6.97;;;3.38;;
50932;SDS011;36921;49.006;9.292;2023-06-22T08:14:14;7.95;;;3.47;;
50932;SDS011;36921;49.006;9.292;2023-06-22T08:16:40;6.13;;;3.63;;
50932;SDS011;36921;49.006;9.292;2023-06-22T08:19:06;9.00;;;3.35;;
50932;SDS011;36921;49.006;9.292;2023-06-22T08:21:32;7.75;;;3.30;;
50932;SDS011;36921;49.006;9.292;2023-06-22T08:23:57;5.47;;;3.47;;
50932;SDS011;36921;49.006;9.292;2023-06-22T08:26:22;5.90;;;3.08;;
50932;SDS011;36921;49.006;9.292;2023-06-22T08:28:48;5.13;;;3.03;;
50932;SDS011;36921;49.006;9.292;2023-06-22T08:31:14;8.30;;;3.45;;
50932;SDS011;36921;49.006;9.292;2023-06-22T08:33:39;4.75;;;2.88;;
50932;SDS011;36921;49.006;9.292;2023-06-22T08:36:05;6.20;;;3.47;;
50932;SDS011;36921;49.006;9.292;2023-06-22T08:38:31;6.15;;;3.13;;
50932;SDS011;36921;49.006;9.292;2023-06-22T08:40:57;4.80;;;2.90;;
50932;SDS011;36921;49.006;9.292;2023-06-22T08:43:22;6.90;;;3.25;;
50932;SDS011;36921;49.006;9.292;2023-06-22T08:45:48;7.45;;;3.85;;
50932;SDS011;36921;49.006;9.292;2023-06-22T08:48:13;10.88;;;3.47;;
50932;SDS011;36921;49.006;9.292;2023-06-22T08:50:39;4.93;;;3.53;;
50932;SDS011;36921;49.006;9.292;2023-06-22T08:53:05;5.97;;;3.78;;
50932;SDS011;36921;49.006;9.292;2023-06-22T08:55:31;6.93;;;3.17;;
50932;SDS011;36921;49.006;9.292;2023-06-22T08:57:57;5.82;;;3.30;;
50932;SDS011;36921;49.006;9.292;2023-06-22T09:00:22;6.18;;;2.92;;
50932;SDS011;36921;49.006;9.292;2023-06-22T09:02:48;7.75;;;3.30;;
50932;SDS011;36921;49.006;9.292;2023-06-22T09:05:13;6.15;;;3.20;;
50932;SDS011;36921;49.006;9.292;2023-06-22T09:07:39;4.65;;;3.00;;
50932;SDS011;36921;49.006;9.292;2023-06-22T09:10:05;6.85;;;3.50;;
50932;SDS011;36921;49.006;9.292;2023-06-22T09:12:31;8.13;;;3.55;;
50932;SDS011;36921;49.006;9.292;2023-06-22T09:14:58;6.70;;;3.53;;
50932;SDS011;36921;49.006;9.292;2023-06-22T09:17:25;7.82;;;3.00;;
50932;SDS011;36921;49.006;9.292;2023-06-22T09:19:51;7.45;;;3.15;;
50932;SDS011;36921;49.006;9.292;2023-06-22T09:22:16;6.70;;;3.35;;
50932;SDS011;36921;49.006;9.292;2023-06-22T09:24:41;10.63;;;3.30;;
50932;SDS011;36921;49.006;9.292;2023-06-22T09:27:07;4.25;;;3.10;;
50932;SDS011;36921;49.006;9.292;2023-06-22T09:29:32;6.63;;;3.45;;
50932;SDS011;36921;49.006;9.292;2023-06-22T09:31:59;6.65;;;2.97;;
50932;SDS011;36921;49.006;9.292;2023-06-22T09:34:25;5.47;;;2.95;;
50932;SDS011;36921;49.006;9.292;2023-06-22T09:36:50;6.80;;;2.80;;
50932;SDS011;36921;49.006;9.292;2023-06-22T09:39:17;8.50;;;2.85;;
50932;SDS011;36921;49.006;9.292;2023-06-22T09:41:43;6.35;;;3.38;;
50932;SDS011;36921;49.006;9.292;2023-06-22T09:44:08;6.90;;;2.60;;
50932;SDS011;36921;49.006;9.292;2023-06-22T09:46:34;5.65;;;2.60;;
50932;SDS011;36921;49.006;9.292;2023-06-22T09:48:59;7.32;;;2.88;;
50932;SDS011;36921;49.006;9.292;2023-06-22T09:51:24;8.95;;;2.90;;
50932;SDS011;36921;49.006;9.292;2023-06-22T09:53:50;7.85;;;3.35;;
50932;SDS011;36921;49.006;9.292;2023-06-22T09:56:16;7.25;;;2.75;;
50932;SDS011;36921;49.006;9.292;2023-06-22T09:58:42;5.30;;;2.80;;
50932;SDS011;36921;49.006;9.292;2023-06-22T10:01:08;7.00;;;2.65;;
50932;SDS011;36921;49.006;9.292;2023-06-22T10:03:35;5.83;;;2.33;;
50932;SDS011;36921;49.006;9.292;2023-06-22T10:06:01;6.80;;;2.78;;
50932;SDS011;36921;49.006;9.292;2023-06-22T10:08:26;10.60;;;3.13;;
50932;SDS011;36921;49.006;9.292;2023-06-22T10:10:52;5.32;;;2.97;;
50932;SDS011;36921;49.006;9.292;2023-06-22T10:13:17;6.65;;;3.20;;
50932;SDS011;36921;49.006;9.292;2023-06-22T10:15:43;10.13;;;3.22;;
50932;SDS011;36921;49.006;9.292;2023-06-22T10:18:15;8.35;;;3.22;;
50932;SDS011;36921;49.006;9.292;2023-06-22T10:20:41;7.95;;;3.22;;
50932;SDS011;36921;49.006;9.292;2023-06-22T10:23:08;7.57;;;3.00;;
50932;SDS011;36921;49.006;9.292;2023-06-22T10:25:33;6.68;;;2.97;;
50932;SDS011;36921;49.006;9.292;2023-06-22T10:27:59;5.38;;;3.28;;
50932;SDS011;36921;49.006;9.292;2023-06-22T10:30:24;8.30;;;3.10;;
50932;SDS011;36921;49.006;9.292;2023-06-22T10:32:50;6.80;;;3.30;;
50932;SDS011;36921;49.006;9.292;2023-06-22T10:35:15;6.15;;;2.88;;
50932;SDS011;36921;49.006;9.292;2023-06-22T10:37:44;6.65;;;2.83;;
50932;SDS011;36921;49.006;9.292;2023-06-22T10:40:11;8.65;;;3.17;;
50932;SDS011;36921;49.006;9.292;2023-06-22T10:42:38;6.47;;;3.15;;
50932;SDS011;36921;49.006;9.292;2023-06-22T10:45:03;11.45;;;2.70;;
50932;SDS011;36921;49.006;9.292;2023-06-22T10:47:29;9.57;;;3.67;;
50932;SDS011;36921;49.006;9.292;2023-06-22T10:49:55;6.88;;;2.95;;
50932;SDS011;36921;49.006;9.292;2023-06-22T10:52:20;6.80;;;3.28;;
50932;SDS011;36921;49.006;9.292;2023-06-22T10:54:46;7.50;;;2.90;;
50932;SDS011;36921;49.006;9.292;2023-06-22T10:57:12;11.30;;;3.30;;
50932;SDS011;36921;49.006;9.292;2023-06-22T10:59:37;7.32;;;3.28;;
50932;SDS011;36921;49.006;9.292;2023-06-22T11:02:02;5.82;;;2.88;;
50932;SDS011;36921;49.006;9.292;2023-06-22T11:04:28;6.13;;;3.42;;
50932;SDS011;36921;49.006;9.292;2023-06-22T11:06:53;6.82;;;3.10;;
50932;SDS011;36921;49.006;9.292;2023-06-22T11:09:19;8.60;;;2.85;;
50932;SDS011;36921;49.006;9.292;2023-06-22T11:11:50;6.25;;;3.15;;
50932;SDS011;36921;49.006;9.292;2023-06-22T11:14:19;7.85;;;3.00;;
50932;SDS011;36921;49.006;9.292;2023-06-22T11:16:45;7.88;;;3.45;;
50932;SDS011;36921;49.006;9.292;2023-06-22T11:19:11;9.73;;;3.55;;
50932;SDS011;36921;49.006;9.292;2023-06-22T11:21:37;7.80;;;3.10;;
50932;SDS011;36921;49.006;9.292;2023-06-22T11:24:03;9.95;;;3.08;;
50932;SDS011;36921;49.006;9.292;2023-06-22T11:26:28;6.55;;;3.20;;
50932;SDS011;36921;49.006;9.292;2023-06-22T11:28:54;10.73;;;3.50;;
50932;SDS011;36921;49.006;9.292;2023-06-22T11:31:19;7.80;;;3.03;;
50932;SDS011;36921;49.006;9.292;2023-06-22T11:33:45;7.78;;;3.92;;
50932;SDS011;36921;49.006;9.292;2023-06-22T11:36:13;6.18;;;3.25;;
50932;SDS011;36921;49.006;9.292;2023-06-22T11:38:39;10.70;;;3.45;;
50932;SDS011;36921;49.006;9.292;2023-06-22T11:41:05;10.80;;;3.45;;
50932;SDS011;36921;49.006;9.292;2023-06-22T11:43:31;10.98;;;3.45;;
50932;SDS011;36921;49.006;9.292;2023-06-22T11:45:56;12.38;;;3.63;;
50932;SDS011;36921;49.006;9.292;2023-06-22T11:48:23;11.48;;;3.80;;
50932;SDS011;36921;49.006;9.292;2023-06-22T11:50:49;9.60;;;3.85;;
50932;SDS011;36921;49.006;9.292;2023-06-22T11:53:15;10.15;;;3.03;;
50932;SDS011;36921;49.006;9.292;2023-06-22T11:55:43;10.85;;;3.55;;
50932;SDS011;36921;49.006;9.292;2023-06-22T11:58:09;9.30;;;3.20;;
50932;SDS011;36921;49.006;9.292;2023-06-22T12:00:36;8.10;;;3.50;;
50932;SDS011;36921;49.006;9.292;2023-06-22T12:03:02;7.47;;;2.90;;
50932;SDS011;36921;49.006;9.292;2023-06-22T12:05:28;9.77;;;3.10;;
50932;SDS011;36921;49.006;9.292;2023-06-22T12:07:53;11.38;;;3.75;;
50932;SDS011;36921;49.006;9.292;2023-06-22T12:10:19;11.40;;;3.35;;
50932;SDS011;36921;49.006;9.292;2023-06-22T12:12:45;8.32;;;3.55;;
50932;SDS011;36921;49.006;9.292;2023-06-22T12:15:11;9.32;;;3.45;;
50932;SDS011;36921;49.006;9.292;2023-06-22T12:17:36;10.13;;;3.53;;
50932;SDS011;36921;49.006;9.292;2023-06-22T12:20:02;11.45;;;3.50;;
50932;SDS011;36921;49.006;9.292;2023-06-22T12:22:31;8.68;;;3.60;;
50932;SDS011;36921;49.006;9.292;2023-06-22T12:24:59;8.95;;;3.53;;
50932;SDS011;36921;49.006;9.292;2023-06-22T12:27:26;6.43;;;3.20;;
50932;SDS011;36921;49.006;9.292;2023-06-22T12:29:52;11.00;;;3.47;;
50932;SDS011;36921;49.006;9.292;2023-06-22T12:32:17;7.38;;;3.33;;
50932;SDS011;36921;49.006;9.292;2023-06-22T12:34:43;14.07;;;3.50;;
50932;SDS011;36921;49.006;9.292;2023-06-22T12:37:09;5.85;;;2.95;;
50932;SDS011;36921;49.006;9.292;2023-06-22T12:39:35;10.75;;;3.50;;
50932;SDS011;36921;49.006;9.292;2023-06-22T12:42:01;8.90;;;3.22;;
50932;SDS011;36921;49.006;9.292;2023-06-22T12:44:26;10.95;;;3.67;;
50932;SDS011;36921;49.006;9.292;2023-06-22T12:46:51;11.60;;;3.80;;
50932;SDS011;36921;49.006;9.292;2023-06-22T12:49:17;8.45;;;3.03;;
50932;SDS011;36921;49.006;9.292;2023-06-22T12:51:42;9.25;;;3.38;;
50932;SDS011;36921;49.006;9.292;2023-06-22T12:54:08;10.93;;;3.25;;
50932;SDS011;36921;49.006;9.292;2023-06-22T12:56:34;10.93;;;3.45;;
50932;SDS011;36921;49.006;9.292;2023-06-22T12:59:00;9.02;;;3.05;;
50932;SDS011;36921;49.006;9.292;2023-06-22T13:03:55;20.05;;;3.90;;
50932;SDS011;36921;49.006;9.292;2023-06-22T13:06:21;13.57;;;3.47;;
50932;SDS011;36921;49.006;9.292;2023-06-22T13:08:46;9.40;;;3.35;;
50932;SDS011;36921;49.006;9.292;2023-06-22T13:11:12;8.95;;;3.58;;
50932;SDS011;36921;49.006;9.292;2023-06-22T13:13:38;11.70;;;3.95;;
50932;SDS011;36921;49.006;9.292;2023-06-22T13:16:03;11.38;;;4.00;;
50932;SDS011;36921;49.006;9.292;2023-06-22T13:18:29;9.10;;;3.20;;
50932;SDS011;36921;49.006;9.292;2023-06-22T13:20:54;8.43;;;3.40;;
50932;SDS011;36921;49.006;9.292;2023-06-22T13:23:20;28.42;;;5.22;;
50932;SDS011;36921;49.006;9.292;2023-06-22T13:25:46;13.63;;;3.45;;
50932;SDS011;36921;49.006;9.292;2023-06-22T13:28:11;9.88;;;3.70;;
50932;SDS011;36921;49.006;9.292;2023-06-22T13:30:38;6.78;;;3.58;;
50932;SDS011;36921;49.006;9.292;2023-06-22T13:33:04;11.57;;;4.03;;
50932;SDS011;36921;49.006;9.292;2023-06-22T13:35:29;11.63;;;3.90;;
50932;SDS011;36921;49.006;9.292;2023-06-22T13:37:55;9.88;;;3.80;;
50932;SDS011;36921;49.006;9.292;2023-06-22T13:40:20;9.52;;;3.80;;
50932;SDS011;36921;49.006;9.292;2023-06-22T13:42:46;11.48;;;3.92;;
50932;SDS011;36921;49.006;9.292;2023-06-22T13:45:11;12.13;;;3.42;;
50932;SDS011;36921;49.006;9.292;2023-06-22T13:47:36;7.43;;;3.60;;
50932;SDS011;36921;49.006;9.292;2023-06-22T13:50:02;7.40;;;3.90;;
50932;SDS011;36921;49.006;9.292;2023-06-22T13:52:28;10.05;;;3.75;;
50932;SDS011;36921;49.006;9.292;2023-06-22T13:54:53;11.73;;;3.53;;
50932;SDS011;36921;49.006;9.292;2023-06-22T13:57:19;10.02;;;3.65;;
50932;SDS011;36921;49.006;9.292;2023-06-22T13:59:45;10.18;;;4.05;;
50932;SDS011;36921;49.006;9.292;2023-06-22T14:02:11;15.68;;;3.72;;
50932;SDS011;36921;49.006;9.292;2023-06-22T14:04:36;8.52;;;3.80;;
50932;SDS011;36921;49.006;9.292;2023-06-22T14:07:03;10.27;;;3.55;;
50932;SDS011;36921;49.006;9.292;2023-06-22T14:09:28;16.33;;;3.78;;
50932;SDS011;36921;49.006;9.292;2023-06-22T14:11:54;11.18;;;4.65;;
50932;SDS011;36921;49.006;9.292;2023-06-22T14:14:20;11.50;;;3.85;;
50932;SDS011;36921;49.006;9.292;2023-06-22T14:16:46;11.50;;;3.90;;
50932;SDS011;36921;49.006;9.292;2023-06-22T14:19:12;16.35;;;4.20;;
50932;SDS011;36921;49.006;9.292;2023-06-22T14:21:38;13.80;;;3.72;;
50932;SDS011;36921;49.006;9.292;2023-06-22T14:24:03;9.13;;;4.07;;
50932;SDS011;36921;49.006;9.292;2023-06-22T14:26:29;11.70;;;3.85;;
50932;SDS011;36921;49.006;9.292;2023-06-22T14:28:54;15.85;;;4.22;;
50932;SDS011;36921;49.006;9.292;2023-06-22T14:31:22;9.98;;;3.58;;
50932;SDS011;36921;49.006;9.292;2023-06-22T14:33:48;12.90;;;3.83;;
50932;SDS011;36921;49.006;9.292;2023-06-22T14:36:15;9.40;;;3.58;;
50932;SDS011;36921;49.006;9.292;2023-06-22T14:38:41;9.70;;;4.10;;
50932;SDS011;36921;49.006;9.292;2023-06-22T14:41:06;8.05;;;3.67;;
50932;SDS011;36921;49.006;9.292;2023-06-22T14:43:31;12.10;;;3.97;;
50932;SDS011;36921;49.006;9.292;2023-06-22T14:45:57;18.40;;;4.63;;
50932;SDS011;36921;49.006;9.292;2023-06-22T14:48:22;14.38;;;4.15;;
50932;SDS011;36921;49.006;9.292;2023-06-22T14:50:48;11.73;;;3.92;;